createdAt,value
2022-12-15T00:00:21.433Z,8.17
2022-12-15T00:03:06.987Z,5.68
2022-12-15T00:05:52.703Z,6.60
2022-12-15T00:08:39.722Z,6.81
2022-12-15T00:11:25.054Z,7.23
2022-12-15T00:14:10.600Z,7.48
2022-12-15T00:16:55.958Z,6.91
2022-12-15T00:19:41.502Z,6.92
2022-12-15T00:22:26.901Z,6.56
2022-12-15T00:25:14.006Z,6.20
2022-12-15T00:27:59.644Z,5.78
2022-12-15T00:30:45.129Z,6.53
2022-12-15T00:33:35.842Z,6.70
2022-12-15T00:36:21.375Z,7.23
2022-12-15T00:38:49.650Z,7.20
2022-12-15T00:41:19.882Z,7.55
2022-12-15T00:43:48.329Z,7.25
2022-12-15T00:46:34.064Z,7.47
2022-12-15T00:49:02.725Z,7.24
2022-12-15T00:51:48.035Z,7.30
2022-12-15T00:54:33.578Z,7.10
2022-12-15T00:57:20.682Z,7.61
2022-12-15T01:00:06.411Z,6.65
2022-12-15T01:02:52.188Z,6.68
2022-12-15T01:05:38.179Z,6.89
2022-12-15T01:08:23.562Z,6.95
2022-12-15T01:11:09.063Z,7.12
2022-12-15T01:13:56.033Z,7.27
2022-12-15T01:16:41.706Z,7.18
2022-12-15T01:19:27.552Z,7.46
2022-12-15T01:21:55.772Z,7.42
2022-12-15T01:24:24.591Z,7.87
2022-12-15T01:26:53.037Z,7.51
2022-12-15T01:29:22.759Z,7.14
2022-12-15T01:31:51.084Z,7.28
2022-12-15T01:34:22.909Z,6.96
2022-12-15T01:36:51.354Z,7.18
2022-12-15T01:39:19.675Z,7.01
2022-12-15T01:41:46.875Z,5.90
2022-12-15T01:44:18.189Z,6.99
2022-12-15T01:46:50.374Z,6.54
2022-12-15T01:49:24.698Z,6.52
2022-12-15T01:51:57.130Z,6.15
2022-12-15T01:54:31.393Z,6.68
2022-12-15T01:57:05.522Z,6.89
2022-12-15T01:59:38.990Z,7.28
2022-12-15T02:02:08.916Z,7.26
2022-12-15T02:04:39.114Z,6.34
2022-12-15T02:07:07.312Z,7.09
2022-12-15T02:09:35.598Z,7.74
2022-12-15T02:12:16.987Z,7.48
2022-12-15T02:14:55.075Z,7.87
2022-12-15T02:17:35.260Z,7.25
2022-12-15T02:20:26.179Z,6.81
2022-12-15T02:23:27.584Z,6.64
2022-12-15T02:26:40.790Z,6.85
2022-12-15T02:29:19.280Z,7.14
2022-12-15T02:31:54.146Z,7.67
2022-12-15T02:34:28.504Z,7.38
2022-12-15T02:37:01.100Z,6.50
2022-12-15T02:39:30.335Z,7.24
2022-12-15T02:41:58.652Z,7.51
2022-12-15T02:44:30.597Z,6.77
2022-12-15T02:47:19.061Z,7.98
2022-12-15T02:50:08.620Z,7.96
2022-12-15T02:52:51.624Z,7.24
2022-12-15T02:55:27.548Z,6.55
2022-12-15T02:58:02.076Z,7.08
2022-12-15T03:00:34.613Z,7.24
2022-12-15T03:03:04.668Z,8.24
2022-12-15T03:05:33.771Z,8.40
2022-12-15T03:08:02.574Z,8.53
2022-12-15T03:10:30.893Z,8.29
2022-12-15T03:12:59.154Z,8.54
2022-12-15T03:15:31.827Z,8.23
2022-12-15T03:18:05.110Z,8.43
2022-12-15T03:20:33.868Z,8.52
2022-12-15T03:23:02.570Z,8.60
2022-12-15T03:25:31.162Z,8.49
2022-12-15T03:27:59.498Z,8.47
2022-12-15T03:30:27.821Z,8.61
2022-12-15T03:32:56.098Z,8.50
2022-12-15T03:35:25.821Z,8.10
2022-12-15T03:37:54.092Z,8.17
2022-12-15T03:40:22.441Z,8.34
2022-12-15T03:42:50.744Z,8.02
2022-12-15T03:45:20.063Z,8.37
2022-12-15T03:47:49.174Z,8.46
2022-12-15T03:50:19.483Z,8.49
2022-12-15T03:52:51.819Z,7.98
2022-12-15T03:55:20.823Z,8.17
2022-12-15T03:57:49.494Z,8.32
2022-12-15T04:00:19.336Z,8.32
2022-12-15T04:02:50.387Z,7.99
2022-12-15T04:05:21.340Z,8.13
2022-12-15T04:07:51.002Z,7.52
2022-12-15T04:10:20.215Z,7.52
2022-12-15T04:12:48.529Z,7.37
2022-12-15T04:15:17.135Z,8.25
2022-12-15T04:17:45.402Z,7.88
2022-12-15T04:20:12.797Z,8.27
2022-12-15T04:22:42.667Z,8.57
2022-12-15T04:25:32.964Z,8.64
2022-12-15T04:28:18.886Z,8.75
2022-12-15T04:31:08.444Z,8.52
2022-12-15T04:33:54.948Z,8.30
2022-12-15T04:36:41.049Z,8.30
2022-12-15T04:39:26.869Z,8.56
2022-12-15T04:42:17.515Z,7.93
2022-12-15T04:45:03.457Z,8.32
2022-12-15T04:47:48.930Z,7.43
2022-12-15T04:50:34.936Z,7.90
2022-12-15T04:53:27.059Z,6.69
2022-12-15T04:56:17.966Z,8.01
2022-12-15T04:59:06.209Z,8.20
2022-12-15T05:01:52.704Z,8.27
2022-12-15T05:04:38.214Z,8.52
2022-12-15T05:07:23.816Z,7.76
2022-12-15T05:10:14.624Z,7.73
2022-12-15T05:13:00.879Z,8.18
2022-12-15T05:15:48.145Z,7.93
2022-12-15T05:18:34.039Z,8.19
2022-12-15T05:21:19.935Z,8.16
2022-12-15T05:24:05.481Z,8.23
2022-12-15T05:26:53.218Z,7.92
2022-12-15T05:29:39.320Z,7.63
2022-12-15T05:32:09.390Z,8.13
2022-12-15T05:34:38.563Z,7.96
2022-12-15T05:37:07.553Z,8.22
2022-12-15T05:39:36.843Z,8.29
2022-12-15T05:42:05.452Z,8.51
2022-12-15T05:44:34.213Z,7.89
2022-12-15T05:47:02.569Z,8.27
2022-12-15T05:49:33.541Z,8.49
2022-12-15T05:52:04.790Z,8.29
2022-12-15T05:54:33.038Z,7.20
2022-12-15T05:57:01.522Z,8.31
2022-12-15T05:59:29.859Z,7.79
2022-12-15T06:01:58.167Z,8.10
2022-12-15T06:04:26.630Z,8.46
2022-12-15T06:06:56.329Z,8.32
2022-12-15T06:09:24.579Z,8.33
2022-12-15T06:11:52.872Z,8.09
2022-12-15T06:14:21.240Z,8.39
2022-12-15T06:16:50.741Z,8.58
2022-12-15T06:19:21.380Z,8.62
2022-12-15T06:21:49.870Z,8.07
2022-12-15T06:24:19.615Z,7.93
2022-12-15T06:26:49.575Z,7.80
2022-12-15T06:29:18.501Z,8.05
2022-12-15T06:31:47.114Z,8.24
2022-12-15T06:34:17.566Z,8.42
2022-12-15T06:36:46.042Z,7.77
2022-12-15T06:39:15.969Z,8.00
2022-12-15T06:41:45.906Z,8.28
2022-12-15T06:44:16.078Z,8.53
2022-12-15T06:46:46.330Z,8.47
2022-12-15T06:49:15.712Z,8.10
2022-12-15T06:51:45.159Z,8.48
2022-12-15T06:54:13.633Z,8.48
2022-12-15T06:56:42.607Z,8.26
2022-12-15T06:59:13.079Z,8.49
2022-12-15T07:01:41.867Z,8.44
2022-12-15T07:04:11.628Z,8.82
2022-12-15T07:06:40.745Z,8.42
2022-12-15T07:09:13.879Z,8.71
2022-12-15T07:11:42.160Z,8.71
2022-12-15T07:14:12.473Z,8.55
2022-12-15T07:16:41.270Z,8.23
2022-12-15T07:19:12.665Z,8.63
2022-12-15T07:21:41.327Z,7.98
2022-12-15T07:24:12.118Z,8.42
2022-12-15T07:26:40.570Z,8.38
2022-12-15T07:29:08.882Z,8.53
2022-12-15T07:31:38.816Z,8.67
2022-12-15T07:34:07.358Z,8.78
2022-12-15T07:36:35.850Z,8.70
2022-12-15T07:39:05.863Z,8.34
2022-12-15T07:41:34.402Z,9.08
2022-12-15T07:44:03.407Z,9.04
2022-12-15T07:46:31.797Z,8.88
2022-12-15T07:49:01.415Z,9.14
2022-12-15T07:51:29.698Z,8.79
2022-12-15T07:53:58.062Z,8.99
2022-12-15T07:56:26.352Z,9.23
2022-12-15T07:58:54.627Z,8.99
2022-12-15T08:01:22.990Z,9.24
2022-12-15T08:03:51.455Z,8.89
2022-12-15T08:06:21.298Z,9.31
2022-12-15T08:08:50.438Z,9.28
2022-12-15T08:11:20.529Z,9.04
2022-12-15T08:14:07.892Z,9.50
2022-12-15T08:16:37.747Z,9.26
2022-12-15T08:19:06.602Z,8.68
2022-12-15T08:21:36.295Z,9.35
2022-12-15T08:24:04.610Z,9.01
2022-12-15T08:26:33.011Z,9.36
2022-12-15T08:29:40.553Z,9.27
2022-12-15T08:31:53.415Z,9.35
2022-12-15T08:34:22.157Z,9.07
2022-12-15T08:36:51.931Z,9.34
2022-12-15T08:39:20.771Z,9.87
2022-12-15T08:41:49.148Z,10.02
2022-12-15T08:44:17.535Z,9.69
2022-12-15T08:46:45.943Z,10.23
2022-12-15T08:49:19.591Z,9.88
2022-12-15T08:51:51.647Z,10.22
2022-12-15T08:54:20.935Z,10.04
2022-12-15T08:56:49.689Z,9.95
2022-12-15T08:59:20.976Z,10.27
2022-12-15T09:01:49.432Z,10.33
2022-12-15T09:04:18.301Z,10.13
2022-12-15T09:06:50.579Z,10.14
2022-12-15T09:09:21.075Z,10.05
2022-12-15T09:11:49.750Z,10.08
2022-12-15T09:14:20.629Z,10.51
2022-12-15T09:16:51.299Z,10.42
2022-12-15T09:19:20.126Z,10.50
2022-12-15T09:21:49.635Z,10.48
2022-12-15T09:24:25.861Z,10.29
2022-12-15T09:27:03.395Z,10.55
2022-12-15T09:29:31.797Z,10.70
2022-12-15T09:32:00.584Z,10.53
2022-12-15T09:34:29.214Z,9.81
2022-12-15T09:36:58.042Z,10.59
2022-12-15T09:39:26.276Z,10.49
2022-12-15T09:41:59.724Z,10.35
2022-12-15T09:44:31.547Z,10.22
2022-12-15T09:47:08.251Z,10.58
2022-12-15T09:49:46.012Z,10.46
2022-12-15T09:52:16.132Z,10.47
2022-12-15T09:54:46.510Z,10.38
2022-12-15T09:57:26.663Z,10.35
2022-12-15T10:00:22.017Z,9.98
2022-12-15T10:03:18.770Z,10.33
2022-12-15T10:06:17.731Z,10.51
2022-12-15T10:08:51.265Z,10.47
2022-12-15T10:11:25.976Z,10.22
2022-12-15T10:13:59.296Z,10.34
2022-12-15T10:16:34.096Z,10.73
2022-12-15T10:19:10.140Z,11.01
2022-12-15T10:21:38.825Z,11.05
2022-12-15T10:24:31.395Z,10.87
2022-12-15T10:27:19.098Z,11.14
2022-12-15T10:29:50.791Z,10.90
2022-12-15T10:32:25.308Z,11.08
2022-12-15T10:34:53.687Z,10.60
2022-12-15T10:37:24.395Z,10.55
2022-12-15T10:39:52.905Z,9.89
2022-12-15T10:42:24.738Z,10.60
2022-12-15T10:44:55.325Z,10.75
2022-12-15T10:47:27.383Z,10.76
2022-12-15T10:49:57.112Z,10.56
2022-12-15T10:52:28.985Z,10.55
2022-12-15T10:54:57.659Z,10.00
2022-12-15T10:57:31.802Z,10.20
2022-12-15T11:00:29.852Z,10.61
2022-12-15T11:02:59.047Z,10.44
2022-12-15T11:05:28.170Z,9.88
2022-12-15T11:08:14.007Z,10.93
2022-12-15T11:11:09.585Z,10.97
2022-12-15T11:13:38.560Z,10.15
2022-12-15T11:16:20.186Z,10.64
2022-12-15T11:18:52.632Z,10.34
2022-12-15T11:21:25.558Z,10.80
2022-12-15T11:24:00.930Z,10.95
2022-12-15T11:26:48.878Z,10.11
2022-12-15T11:29:30.891Z,11.03
2022-12-15T11:32:06.731Z,11.15
2022-12-15T11:34:39.179Z,11.27
2022-12-15T11:37:21.336Z,11.31
2022-12-15T11:40:02.138Z,11.78
2022-12-15T11:42:43.966Z,11.67
2022-12-15T11:45:21.204Z,11.40
2022-12-15T11:47:54.608Z,11.85
2022-12-15T11:50:30.743Z,11.62
2022-12-15T11:53:11.414Z,11.43
2022-12-15T11:55:48.103Z,11.43
2022-12-15T11:58:36.710Z,11.42
2022-12-15T12:01:15.339Z,11.66
2022-12-15T12:03:56.855Z,11.39
2022-12-15T12:06:36.178Z,11.89
2022-12-15T12:09:26.270Z,11.74
2022-12-15T12:12:00.675Z,11.97
2022-12-15T12:14:40.581Z,12.08
2022-12-15T12:17:16.820Z,12.61
2022-12-15T12:19:51.082Z,12.72
2022-12-15T12:22:24.764Z,13.10
2022-12-15T12:24:58.106Z,13.12
2022-12-15T12:27:34.587Z,13.23
2022-12-15T12:30:08.365Z,13.08
2022-12-15T12:32:45.160Z,13.22
2022-12-15T12:38:12.267Z,12.78
2022-12-15T12:40:58.835Z,12.73
2022-12-15T12:43:34.665Z,13.07
2022-12-15T12:46:10.500Z,12.77
2022-12-15T12:48:42.817Z,12.85
2022-12-15T12:51:22.341Z,12.89
2022-12-15T12:53:51.669Z,13.07
2022-12-15T12:56:40.332Z,13.10
2022-12-15T12:59:40.338Z,13.14
2022-12-15T13:02:46.654Z,13.33
2022-12-15T13:05:28.633Z,13.01
2022-12-15T13:08:19.869Z,13.18
2022-12-15T13:10:50.952Z,12.90
2022-12-15T13:13:39.063Z,13.18
2022-12-15T13:16:12.909Z,13.08
2022-12-15T13:18:58.904Z,13.06
2022-12-15T13:21:54.448Z,13.30
2022-12-15T13:24:42.555Z,13.35
2022-12-15T13:27:16.642Z,13.60
2022-12-15T13:30:03.047Z,13.30
2022-12-15T13:32:35.295Z,12.86
2022-12-15T13:35:18.463Z,13.00
2022-12-15T13:37:50.718Z,13.12
2022-12-15T13:40:35.077Z,13.13
2022-12-15T13:43:11.862Z,13.16
2022-12-15T13:48:39.845Z,12.93
2022-12-15T13:51:30.287Z,12.86
2022-12-15T13:54:04.158Z,12.61
2022-12-15T13:56:46.250Z,12.11
2022-12-15T13:59:21.811Z,12.42
2022-12-15T14:01:52.333Z,12.70
2022-12-15T14:04:22.902Z,12.64
2022-12-15T14:06:54.842Z,12.50
2022-12-15T14:09:27.222Z,12.59
2022-12-15T14:11:57.355Z,12.73
2022-12-15T14:14:45.549Z,12.55
2022-12-15T14:17:19.422Z,12.53
2022-12-15T14:19:51.052Z,12.47
2022-12-15T14:25:18.128Z,12.43
2022-12-15T14:27:51.016Z,11.83
2022-12-15T14:30:37.602Z,11.59
2022-12-15T14:33:10.841Z,11.48
2022-12-15T14:35:43.406Z,11.49
2022-12-15T14:38:16.105Z,10.92
2022-12-15T14:40:46.671Z,11.53
2022-12-15T14:43:22.480Z,10.72
2022-12-15T14:45:56.163Z,10.82
2022-12-15T14:48:41.159Z,11.21
2022-12-15T14:51:12.862Z,11.42
2022-12-15T14:53:43.552Z,11.37
2022-12-15T14:56:29.778Z,10.68
2022-12-15T14:59:21.473Z,11.09
2022-12-15T15:01:58.707Z,9.84
2022-12-15T15:03:11.194Z,13.12
2022-12-15T15:03:15.818Z,12.13
2022-12-15T15:03:15.930Z,13.02
2022-12-15T15:04:31.065Z,10.70
2022-12-15T15:07:01.654Z,10.83
2022-12-15T15:09:32.211Z,10.91
2022-12-15T15:12:03.988Z,11.10
2022-12-15T15:14:38.707Z,10.78
2022-12-15T15:17:10.088Z,10.67
2022-12-15T15:19:46.703Z,10.68
2022-12-15T15:22:32.505Z,11.01
2022-12-15T15:25:00.891Z,11.10
2022-12-15T15:27:36.646Z,11.14
2022-12-15T15:30:17.419Z,11.08
2022-12-15T15:32:57.358Z,10.98
2022-12-15T15:35:31.443Z,10.91
2022-12-15T15:38:05.009Z,10.93
2022-12-15T15:40:33.227Z,10.81
2022-12-15T15:43:01.640Z,10.79
2022-12-15T15:45:31.916Z,10.84
2022-12-15T15:48:00.213Z,10.72
2022-12-15T15:50:31.001Z,10.67
2022-12-15T15:52:59.951Z,10.70
2022-12-15T15:55:33.714Z,10.13
2022-12-15T15:58:13.168Z,10.05
2022-12-15T16:00:43.265Z,10.25
2022-12-15T16:03:25.473Z,9.97
2022-12-15T16:05:59.800Z,9.90
2022-12-15T16:08:32.961Z,10.16
2022-12-15T16:11:01.793Z,9.95
2022-12-15T16:13:30.114Z,10.06
2022-12-15T16:15:59.905Z,9.86
2022-12-15T16:18:28.251Z,9.98
2022-12-15T16:20:56.462Z,9.71
2022-12-15T16:23:27.665Z,9.87
2022-12-15T16:25:57.743Z,9.99
2022-12-15T16:28:28.702Z,9.33
2022-12-15T16:30:58.584Z,10.16
2022-12-15T16:33:28.961Z,10.06
2022-12-15T16:35:58.757Z,10.04
2022-12-15T16:38:29.608Z,10.50
2022-12-15T16:41:05.725Z,10.01
2022-12-15T16:43:38.123Z,9.48
2022-12-15T16:46:08.277Z,10.37
2022-12-15T16:48:46.572Z,10.24
2022-12-15T16:51:33.257Z,10.24
2022-12-15T16:54:01.633Z,10.17
2022-12-15T16:56:39.015Z,10.07
2022-12-15T16:59:37.351Z,8.92
2022-12-15T17:02:27.883Z,10.05
2022-12-15T17:05:03.930Z,9.95
2022-12-15T17:07:32.348Z,10.25
2022-12-15T17:10:02.325Z,9.37
2022-12-15T17:12:31.685Z,10.17
2022-12-15T17:15:02.505Z,10.26
2022-12-15T17:17:31.705Z,9.59
2022-12-15T17:22:53.515Z,9.83
2022-12-15T17:25:53.346Z,9.76
2022-12-15T17:28:17.201Z,9.85
2022-12-15T17:30:46.088Z,10.05
2022-12-15T17:33:20.023Z,9.97
2022-12-15T17:35:51.659Z,9.52
2022-12-15T17:38:21.778Z,9.57
2022-12-15T17:40:51.691Z,9.75
2022-12-15T17:43:22.116Z,9.86
2022-12-15T17:45:51.639Z,9.57
2022-12-15T17:48:19.919Z,9.75
2022-12-15T17:50:52.485Z,9.80
2022-12-15T17:53:24.145Z,9.87
2022-12-15T17:55:53.739Z,9.69
2022-12-15T17:58:24.577Z,9.52
2022-12-15T18:00:55.719Z,9.64
2022-12-15T18:03:24.911Z,9.26
2022-12-15T18:05:55.058Z,9.15
2022-12-15T18:08:26.447Z,9.30
2022-12-15T18:11:02.181Z,9.22
2022-12-15T18:13:35.460Z,8.93
2022-12-15T18:16:04.224Z,9.26
2022-12-15T18:18:33.513Z,9.39
2022-12-15T18:21:12.407Z,9.44
2022-12-15T18:23:40.887Z,9.21
2022-12-15T18:26:10.548Z,8.52
2022-12-15T18:28:38.938Z,8.86
2022-12-15T18:31:18.048Z,8.68
2022-12-15T18:33:46.680Z,8.82
2022-12-15T18:36:16.397Z,8.92
2022-12-15T18:38:45.267Z,8.77
2022-12-15T18:41:19.564Z,8.75
2022-12-15T18:43:49.285Z,8.54
2022-12-15T18:46:20.520Z,8.21
2022-12-15T18:48:48.804Z,8.38
2022-12-15T18:51:21.813Z,8.73
2022-12-15T18:53:50.354Z,8.74
2022-12-15T18:56:21.784Z,7.26
2022-12-15T18:58:50.195Z,8.40
2022-12-15T19:01:18.783Z,8.02
2022-12-15T19:03:47.209Z,7.05
2022-12-15T19:06:38.285Z,8.35
2022-12-15T19:09:09.664Z,8.61
2022-12-15T19:11:38.150Z,8.81
2022-12-15T19:14:35.408Z,8.87
2022-12-15T19:17:21.247Z,8.91
2022-12-15T19:20:06.834Z,8.97
2022-12-15T19:22:39.563Z,8.97
2022-12-15T19:25:08.663Z,9.10
2022-12-15T19:27:36.964Z,9.03
2022-12-15T19:30:07.961Z,8.59
2022-12-15T19:32:36.269Z,8.58
2022-12-15T19:35:04.657Z,8.27
2022-12-15T19:38:21.187Z,8.76
2022-12-15T19:40:59.801Z,8.99
2022-12-15T19:43:29.012Z,8.89
2022-12-15T19:45:58.828Z,8.93
2022-12-15T19:48:27.346Z,8.69
2022-12-15T19:50:57.035Z,8.79
2022-12-15T19:53:31.486Z,8.81
2022-12-15T19:56:01.906Z,8.82
2022-12-15T19:58:31.977Z,8.84
2022-12-15T20:01:02.516Z,8.62
2022-12-15T20:03:32.556Z,8.52
2022-12-15T20:06:03.350Z,8.68
2022-12-15T20:08:39.881Z,8.62
2022-12-15T20:11:16.744Z,8.67
2022-12-15T20:13:45.512Z,8.55
2022-12-15T20:16:17.765Z,8.37
2022-12-15T20:18:46.744Z,8.61
2022-12-15T20:21:22.099Z,8.64
2022-12-15T20:23:56.294Z,8.38
2022-12-15T20:26:26.255Z,8.67
2022-12-15T20:28:54.830Z,8.41
2022-12-15T20:31:25.483Z,8.78
2022-12-15T20:33:54.330Z,8.69
2022-12-15T20:36:25.500Z,8.42
2022-12-15T20:38:55.788Z,8.21
2022-12-15T20:41:26.289Z,8.54
2022-12-15T20:43:55.976Z,8.44
2022-12-15T20:46:25.934Z,8.65
2022-12-15T20:48:56.298Z,8.69
2022-12-15T20:51:26.675Z,8.69
2022-12-15T20:53:58.317Z,8.30
2022-12-15T20:56:27.738Z,8.11
2022-12-15T20:58:58.150Z,8.15
2022-12-15T21:01:28.458Z,8.75
2022-12-15T21:03:58.614Z,8.76
2022-12-15T21:06:28.970Z,8.57
2022-12-15T21:08:58.966Z,8.61
2022-12-15T21:11:29.580Z,8.60
2022-12-15T21:14:04.280Z,8.68
2022-12-15T21:16:33.623Z,8.79
2022-12-15T21:19:19.617Z,8.99
2022-12-15T21:21:51.879Z,8.94
2022-12-15T21:24:24.112Z,8.65
2022-12-15T21:26:53.443Z,8.79
2022-12-15T21:29:24.112Z,8.40
2022-12-15T21:31:52.776Z,8.61
2022-12-15T21:34:21.381Z,8.77
2022-12-15T21:36:54.726Z,8.65
2022-12-15T21:39:31.477Z,8.58
2022-12-15T21:42:01.321Z,7.96
2022-12-15T21:44:29.685Z,8.69
2022-12-15T21:47:03.505Z,8.98
2022-12-15T21:49:30.803Z,8.45
2022-12-15T21:52:01.389Z,9.05
2022-12-15T21:54:34.470Z,8.96
2022-12-15T21:57:03.839Z,9.02
2022-12-15T21:59:33.486Z,9.19
2022-12-15T22:02:03.118Z,9.30
2022-12-15T22:04:35.877Z,8.12
2022-12-15T22:07:07.976Z,9.34
2022-12-15T22:09:37.838Z,9.29
2022-12-15T22:12:06.222Z,9.14
2022-12-15T22:14:36.217Z,9.26
2022-12-15T22:17:15.524Z,8.49
2022-12-15T22:19:43.857Z,9.03
2022-12-15T22:22:12.474Z,9.32
2022-12-15T22:24:42.263Z,9.42
2022-12-15T22:27:20.068Z,8.88
2022-12-15T22:29:48.821Z,9.17
2022-12-15T22:32:20.486Z,9.27
2022-12-15T22:34:48.868Z,9.19
2022-12-15T22:37:17.169Z,9.34
2022-12-15T22:39:46.874Z,9.34
2022-12-15T22:42:18.132Z,9.34
2022-12-15T22:44:47.079Z,9.42
2022-12-15T22:47:15.442Z,9.18
2022-12-15T22:49:44.051Z,9.19
2022-12-15T22:52:18.124Z,8.59
2022-12-15T22:54:48.205Z,9.15
2022-12-15T22:57:22.380Z,9.24
2022-12-15T22:59:55.267Z,9.17
2022-12-15T23:02:23.599Z,9.20
2022-12-15T23:04:51.919Z,9.55
2022-12-15T23:07:20.222Z,9.79
2022-12-15T23:10:09.876Z,9.82
2022-12-15T23:12:37.139Z,9.93
2022-12-15T23:15:23.247Z,9.12
2022-12-15T23:17:51.620Z,9.97
2022-12-15T23:20:20.492Z,9.86
2022-12-15T23:22:48.733Z,9.78
2022-12-15T23:25:18.711Z,9.76
2022-12-15T23:27:46.963Z,10.08
2022-12-15T23:30:16.098Z,10.06
2022-12-15T23:32:44.650Z,9.86
2022-12-15T23:35:12.890Z,10.19
2022-12-15T23:37:41.136Z,10.16
2022-12-15T23:40:10.245Z,9.94
2022-12-15T23:42:39.910Z,9.92
2022-12-15T23:45:09.205Z,9.97
2022-12-15T23:47:37.527Z,10.08
2022-12-15T23:50:06.637Z,10.18
2022-12-15T23:52:35.001Z,9.56
2022-12-15T23:55:03.344Z,10.12
2022-12-15T23:57:31.917Z,9.73
